Time;durP1;ratioP1;P1;durP2;ratioP2;P2;SDS_P1;SDS_P2;PMS_P1;PMS_P2;Temp;Humidity;BMP_temperature;BMP_pressure;BME280_temperature;BME280_humidity;BME280_pressure;Samples;Min_cycle;Max_cycle;Signal;HPM_P1;HPM_P2
2021/06/11 00:01:37;;;;;;;23.95;19.67;;;;;;;-139.48;100.00;61774.03;5076108;28;20071;-73
2021/06/11 00:04:21;;;;;;;25.55;22.15;;;;;;;-139.48;100.00;61774.03;5076299;28;20547;-73
2021/06/11 00:07:05;;;;;;;23.73;20.13;;;;;;;-139.48;100.00;61774.03;5075856;28;20078;-73
2021/06/11 00:09:49;;;;;;;23.10;20.70;;;;;;;-139.48;100.00;61774.03;5060734;28;20047;-73
2021/06/11 00:12:33;;;;;;;23.75;19.60;;;;;;;-139.48;100.00;61774.03;5074953;28;20097;-73
2021/06/11 00:15:18;;;;;;;24.20;20.38;;;;;;;-139.48;100.00;61774.03;5061107;28;20032;-73
2021/06/11 00:18:03;;;;;;;22.23;19.83;;;;;;;-139.48;100.00;61774.03;5060691;28;20190;-73
2021/06/11 00:20:46;;;;;;;22.25;19.92;;;;;;;-139.48;100.00;61774.03;5060372;28;20048;-73
2021/06/11 00:23:30;;;;;;;23.63;19.38;;;;;;;-139.48;100.00;61774.03;5060355;28;20098;-73
2021/06/11 00:26:14;;;;;;;22.77;19.45;;;;;;;-139.48;100.00;61774.03;5074327;28;20098;-73
2021/06/11 00:28:59;;;;;;;21.27;19.13;;;;;;;-139.48;100.00;61774.03;5074524;28;20048;-73
2021/06/11 00:31:43;;;;;;;26.20;20.75;;;;;;;-139.48;100.00;61774.03;5060357;28;20052;-73
2021/06/11 00:34:26;;;;;;;28.00;21.10;;;;;;;-139.48;100.00;61774.03;5075231;28;20055;-73
2021/06/11 00:37:10;;;;;;;28.98;20.17;;;;;;;-139.48;100.00;61774.03;5075538;28;20097;-73
2021/06/11 00:39:54;;;;;;;26.17;20.52;;;;;;;-139.48;100.00;61774.03;5059914;28;20046;-73
2021/06/11 00:42:39;;;;;;;25.88;20.00;;;;;;;-139.48;100.00;61774.03;5074324;28;20047;-73
2021/06/11 00:45:23;;;;;;;26.17;20.15;;;;;;;-139.48;100.00;61774.03;5073980;28;20089;-73
2021/06/11 00:48:08;;;;;;;21.40;19.20;;;;;;;-139.48;100.00;61774.03;5074411;28;20055;-73
2021/06/11 00:50:52;;;;;;;21.25;19.05;;;;;;;-139.48;100.00;61774.03;5073670;28;20055;-73
2021/06/11 00:53:36;;;;;;;21.80;19.50;;;;;;;-139.48;100.00;61774.03;5059875;28;20055;-73
2021/06/11 00:56:20;;;;;;;20.50;18.30;;;;;;;-139.48;100.00;61774.03;5074089;28;20051;-73
2021/06/11 00:59:04;;;;;;;23.42;18.17;;;;;;;-139.48;100.00;61774.03;5073825;28;20098;-73
2021/06/11 01:01:48;;;;;;;23.52;18.70;;;;;;;-139.48;100.00;61774.03;5073472;28;20051;-73
2021/06/11 01:04:32;;;;;;;19.83;17.83;;;;;;;-139.48;100.00;61774.03;5074590;28;20127;-73
2021/06/11 01:07:20;;;;;;;20.73;17.30;;;;;;;-139.48;100.00;61774.03;5073781;28;20059;-73
2021/06/11 01:10:05;;;;;;;22.38;17.70;;;;;;;-139.48;100.00;61774.03;5073519;28;20109;-73
2021/06/11 01:12:50;;;;;;;19.33;17.33;;;;;;;-139.48;100.00;61774.03;5073783;28;20055;-73
2021/06/11 01:15:35;;;;;;;25.00;18.33;;;;;;;-139.48;100.00;61774.03;5059420;28;20091;-73
2021/06/11 01:18:20;;;;;;;19.75;17.75;;;;;;;-139.48;100.00;61774.03;5073422;28;20520;-73
2021/06/11 01:21:04;;;;;;;22.25;18.52;;;;;;;-139.48;100.00;61774.03;5073218;28;20130;-73
2021/06/11 01:23:54;;;;;;;21.88;17.92;;;;;;;-139.48;100.00;61774.03;5073500;28;20507;-73
2021/06/11 01:26:40;;;;;;;25.15;19.25;;;;;;;-139.48;100.00;61774.03;5073082;28;20079;-72
2021/06/11 01:29:29;;;;;;;20.60;18.00;;;;;;;-139.48;100.00;61774.03;5059220;28;20082;-73
2021/06/11 01:32:14;;;;;;;22.80;17.30;;;;;;;-139.48;100.00;61774.03;5059441;28;20098;-73
2021/06/11 01:35:02;;;;;;;24.52;19.40;;;;;;;-139.48;100.00;61774.03;5044836;28;20048;-73
2021/06/11 01:37:48;;;;;;;22.98;19.02;;;;;;;-139.48;100.00;61774.03;5072902;28;20102;-73
2021/06/11 01:40:33;;;;;;;31.63;19.92;;;;;;;-139.48;100.00;61774.03;5058758;28;20055;-73
2021/06/11 01:43:19;;;;;;;20.98;18.77;;;;;;;-139.48;100.00;61774.03;5073190;28;20047;-73
2021/06/11 01:46:03;;;;;;;23.15;19.42;;;;;;;-139.48;100.00;61774.03;5072725;28;20047;-73
2021/06/11 01:48:49;;;;;;;24.65;19.98;;;;;;;-139.48;100.00;61774.03;5059129;28;20138;-73
2021/06/11 01:51:35;;;;;;;26.45;19.95;;;;;;;-139.48;100.00;61774.03;5058598;28;20071;-72
2021/06/11 01:54:19;;;;;;;24.88;19.70;;;;;;;-139.48;100.00;61774.03;5072616;28;20047;-73
2021/06/11 01:57:04;;;;;;;22.10;19.73;;;;;;;-139.48;100.00;61774.03;5072902;28;20063;-73
2021/06/11 01:59:48;;;;;;;21.17;18.98;;;;;;;-139.48;100.00;61774.03;5072779;28;20046;-73
2021/06/11 02:02:34;;;;;;;20.45;17.95;;;;;;;-139.48;100.00;61774.03;5058396;28;20136;-73
2021/06/11 02:05:20;;;;;;;19.40;17.30;;;;;;;-139.48;100.00;61774.03;5058563;28;20083;-73
2021/06/11 02:08:04;;;;;;;23.05;18.00;;;;;;;-139.48;100.00;61774.03;5058256;28;20043;-72
2021/06/11 02:10:49;;;;;;;25.00;18.13;;;;;;;-139.48;100.00;61774.03;5058403;28;20094;-73
2021/06/11 02:13:33;;;;;;;21.13;18.15;;;;;;;-139.48;100.00;61774.03;5071853;28;20054;-73
2021/06/11 02:16:18;;;;;;;21.15;18.70;;;;;;;-139.48;100.00;61774.03;5072873;28;20094;-73
2021/06/11 02:19:03;;;;;;;24.50;18.45;;;;;;;-139.48;100.00;61774.03;5058368;28;20055;-73
2021/06/11 02:21:47;;;;;;;23.27;18.02;;;;;;;-139.48;100.00;61774.03;5058444;28;20046;-73
2021/06/11 02:24:32;;;;;;;19.10;17.10;;;;;;;-139.48;100.00;61774.03;5072592;28;20177;-73
2021/06/11 02:27:19;;;;;;;20.42;18.05;;;;;;;-139.48;100.00;61774.03;5072424;28;20138;-73
2021/06/11 02:30:11;;;;;;;20.90;18.73;;;;;;;-139.48;100.00;61774.03;5072964;28;20055;-73
2021/06/11 02:32:55;;;;;;;23.85;19.65;;;;;;;-139.48;100.00;61774.03;5072603;28;20048;-73
2021/06/11 02:35:39;;;;;;;26.40;18.73;;;;;;;-139.48;100.00;61774.03;5072162;28;20039;-73
2021/06/11 02:38:23;;;;;;;21.00;18.30;;;;;;;-139.48;100.00;61774.03;5057908;28;20043;-73
2021/06/11 02:41:10;;;;;;;20.92;18.67;;;;;;;-139.48;100.00;61774.03;5073107;28;20070;-73
2021/06/11 02:43:55;;;;;;;20.67;18.13;;;;;;;-139.48;100.00;61774.03;5057940;28;20097;-73
2021/06/11 02:46:41;;;;;;;22.35;18.20;;;;;;;-139.48;100.00;61774.03;5058022;28;20048;-73
2021/06/11 02:49:48;;;;;;;20.65;18.55;;;;;;;-139.48;100.00;61774.03;5073130;28;20059;-73
2021/06/11 02:52:34;;;;;;;20.73;18.63;;;;;;;-139.48;100.00;61774.03;5072476;28;20055;-73
2021/06/11 02:55:19;;;;;;;20.73;18.52;;;;;;;-139.48;100.00;61774.03;5071889;28;20142;-73
2021/06/11 02:58:10;;;;;;;20.55;18.33;;;;;;;-139.48;100.00;61774.03;5058193;28;20051;-72
2021/06/11 03:00:54;;;;;;;25.73;18.73;;;;;;;-139.48;100.00;61774.03;5058236;28;20051;-73
2021/06/11 03:03:39;;;;;;;20.95;18.85;;;;;;;-139.48;100.00;61774.03;5058010;28;20052;-73
2021/06/11 03:06:24;;;;;;;20.95;18.70;;;;;;;-139.48;100.00;61774.03;5071684;28;20055;-73
2021/06/11 03:09:10;;;;;;;20.58;18.38;;;;;;;-139.48;100.00;61774.03;5057648;28;20079;-73
2021/06/11 03:11:56;;;;;;;21.13;18.45;;;;;;;-139.48;100.00;61774.03;5071771;28;20405;-73
2021/06/11 03:14:40;;;;;;;22.63;19.60;;;;;;;-139.48;100.00;61774.03;5071975;28;20086;-73
2021/06/11 03:17:29;;;;;;;21.70;17.48;;;;;;;-139.48;100.00;61774.03;5071901;28;20047;-73
2021/06/11 03:20:18;;;;;;;24.63;18.50;;;;;;;-139.48;100.00;61774.03;5071881;28;20052;-73
2021/06/11 03:23:06;;;;;;;21.65;17.27;;;;;;;-139.48;100.00;61774.03;5057414;28;20139;-73
2021/06/11 03:25:52;;;;;;;21.95;18.02;;;;;;;-139.48;100.00;61774.03;5060946;28;20091;-73
2021/06/11 03:28:45;;;;;;;21.40;17.33;;;;;;;-139.48;100.00;61774.03;5076641;28;20094;-73
2021/06/11 03:31:35;;;;;;;20.17;18.08;;;;;;;-139.48;100.00;61774.03;5075255;28;20055;-73
2021/06/11 03:34:23;;;;;;;19.83;17.73;;;;;;;-139.48;100.00;61774.03;5061453;28;20525;-73
2021/06/11 03:37:11;;;;;;;19.73;17.45;;;;;;;-139.48;100.00;61774.03;5075468;28;20071;-73
2021/06/11 03:39:58;;;;;;;20.13;18.02;;;;;;;-139.48;100.00;61774.03;5075161;28;20516;-73
2021/06/11 03:42:42;;;;;;;19.35;17.25;;;;;;;-139.48;100.00;61774.03;5075173;28;20048;-73
2021/06/11 03:45:28;;;;;;;20.17;18.08;;;;;;;-139.48;100.00;61774.03;5075297;28;20098;-73
2021/06/11 03:48:15;;;;;;;18.92;16.98;;;;;;;-139.48;100.00;61774.03;5075033;28;20562;-73
2021/06/11 03:51:00;;;;;;;20.20;18.05;;;;;;;-139.48;100.00;61774.03;5062124;28;20051;-73
2021/06/11 03:53:45;;;;;;;19.88;17.63;;;;;;;-139.48;100.00;61774.03;5076194;28;20044;-73
2021/06/11 03:56:31;;;;;;;22.10;18.48;;;;;;;-139.48;100.00;61774.03;5061030;28;20043;-73
2021/06/11 03:59:17;;;;;;;20.42;18.25;;;;;;;-139.48;100.00;61774.03;5074879;28;20408;-73
2021/06/11 04:02:03;;;;;;;22.42;19.75;;;;;;;-139.48;100.00;61774.03;5060984;28;20142;-71
2021/06/11 04:04:47;;;;;;;23.67;17.77;;;;;;;-139.48;100.00;61774.03;5074959;28;20105;-73
2021/06/11 04:07:37;;;;;;;20.23;16.55;;;;;;;-139.48;100.00;61774.03;5060767;28;20094;-73
2021/06/11 04:10:28;;;;;;;20.90;17.83;;;;;;;-139.48;100.00;61774.03;5060497;28;20070;-73
2021/06/11 04:13:18;;;;;;;20.50;17.85;;;;;;;-139.48;100.00;61774.03;5074560;28;20095;-73
2021/06/11 04:16:03;;;;;;;18.92;16.50;;;;;;;-139.48;100.00;61774.03;5074591;28;20038;-73
2021/06/11 04:18:47;;;;;;;23.63;17.25;;;;;;;-139.48;100.00;61774.03;5060480;28;20066;-73
2021/06/11 04:21:34;;;;;;;19.20;16.10;;;;;;;-139.48;100.00;61774.03;5074730;28;20047;-73
2021/06/11 04:24:22;;;;;;;18.48;15.98;;;;;;;-139.48;100.00;61774.03;5074644;28;20413;-73
2021/06/11 04:27:07;;;;;;;18.05;15.80;;;;;;;-139.48;100.00;61774.03;5074208;28;20047;-73
2021/06/11 04:29:52;;;;;;;17.88;15.77;;;;;;;-139.48;100.00;61774.03;5061087;28;20127;-72
2021/06/11 04:32:36;;;;;;;19.83;16.05;;;;;;;-139.48;100.00;61774.03;5060355;28;20075;-73
2021/06/11 04:35:21;;;;;;;19.25;16.90;;;;;;;-139.48;100.00;61774.03;5074272;28;20051;-73
2021/06/11 04:38:05;;;;;;;21.38;16.70;;;;;;;-139.48;100.00;61774.03;5074215;28;20090;-72
2021/06/11 04:40:50;;;;;;;18.48;16.52;;;;;;;-139.48;100.00;61774.03;5074296;28;20124;-73
2021/06/11 04:43:34;;;;;;;17.63;15.77;;;;;;;-139.48;100.00;61774.03;5060278;28;20408;-73
2021/06/11 04:46:19;;;;;;;17.52;15.70;;;;;;;-139.48;100.00;61774.03;5074176;28;20044;-73
2021/06/11 04:49:06;;;;;;;17.27;15.50;;;;;;;-139.48;100.00;61774.03;5060074;28;20070;-73
2021/06/11 04:51:50;;;;;;;18.92;15.68;;;;;;;-139.48;100.00;61774.03;5074229;28;20488;-72
2021/06/11 04:54:34;;;;;;;22.70;15.07;;;;;;;-139.48;100.00;61774.03;5060035;28;20284;-73
2021/06/11 04:57:18;;;;;;;16.15;14.45;;;;;;;-139.48;100.00;61774.03;5073695;28;20097;-70
2021/06/11 05:00:04;;;;;;;22.15;16.60;;;;;;;-139.48;100.00;61774.03;5059790;28;20051;-66
2021/06/11 05:02:48;;;;;;;18.20;16.35;;;;;;;-139.48;100.00;61774.03;5059810;28;20131;-66
2021/06/11 05:05:32;;;;;;;18.75;16.63;;;;;;;-139.48;100.00;61774.03;5059762;28;20047;-66
2021/06/11 05:08:15;;;;;;;18.90;16.30;;;;;;;-139.48;100.00;61774.03;5073559;28;20052;-66
2021/06/11 05:11:01;;;;;;;18.40;16.40;;;;;;;-139.48;100.00;61774.03;5074661;28;20055;-66
2021/06/11 05:13:45;;;;;;;18.10;16.25;;;;;;;-139.48;100.00;61774.03;5073859;28;20059;-67
2021/06/11 05:16:29;;;;;;;18.08;16.17;;;;;;;-139.48;100.00;61774.03;5059588;28;20090;-67
2021/06/11 05:19:13;;;;;;;22.00;15.88;;;;;;;-139.48;100.00;61774.03;5073461;28;20110;-67
2021/06/11 05:21:57;;;;;;;17.48;15.52;;;;;;;-139.48;100.00;61774.03;5073129;28;20052;-66
2021/06/11 05:24:41;;;;;;;17.77;15.05;;;;;;;-139.48;100.00;61774.03;5073446;28;20433;-66
2021/06/11 05:27:25;;;;;;;16.83;14.82;;;;;;;-139.48;100.00;61774.03;5073437;28;20056;-66
2021/06/11 05:30:10;;;;;;;16.33;14.73;;;;;;;-139.48;100.00;61774.03;5059150;28;20056;-67
2021/06/11 05:32:55;;;;;;;17.20;14.80;;;;;;;-139.48;100.00;61774.03;5059538;28;20047;-72
2021/06/11 05:35:39;;;;;;;16.65;14.45;;;;;;;-139.48;100.00;61774.03;5073273;28;20117;-72
2021/06/11 05:38:23;;;;;;;15.82;14.20;;;;;;;-139.48;100.00;61774.03;5059037;28;20051;-72
2021/06/11 05:41:07;;;;;;;18.77;15.80;;;;;;;-139.48;100.00;61774.03;5073893;28;20051;-71
2021/06/11 05:43:52;;;;;;;22.30;17.00;;;;;;;-139.48;100.00;61774.03;5073071;28;20055;-71
2021/06/11 05:46:36;;;;;;;17.30;15.35;;;;;;;-139.48;100.00;61774.03;5073934;28;20102;-72
2021/06/11 05:49:20;;;;;;;18.77;16.77;;;;;;;-139.48;100.00;61774.03;5058940;28;20051;-72
2021/06/11 05:52:04;;;;;;;18.73;16.08;;;;;;;-139.48;100.00;61774.03;5073020;28;20090;-71
2021/06/11 05:54:47;;;;;;;17.35;15.50;;;;;;;-139.48;100.00;61774.03;5072927;28;20051;-72
2021/06/11 05:57:32;;;;;;;17.23;13.95;;;;;;;-139.48;100.00;61774.03;5072802;28;20086;-72
2021/06/11 06:00:16;;;;;;;19.20;15.88;;;;;;;-139.48;100.00;61774.03;5072579;28;20111;-71
2021/06/11 06:03:00;;;;;;;16.50;14.75;;;;;;;-139.48;100.00;61774.03;5073809;28;20043;-72
2021/06/11 06:05:45;;;;;;;18.88;16.40;;;;;;;-139.48;100.00;61774.03;5072420;28;20047;-72
2021/06/11 06:08:29;;;;;;;17.60;15.55;;;;;;;-139.48;100.00;61774.03;5072781;28;20067;-72
2021/06/11 06:11:14;;;;;;;18.75;16.67;;;;;;;-139.48;100.00;61774.03;5058654;28;20055;-72
2021/06/11 06:13:58;;;;;;;16.95;15.15;;;;;;;-139.48;100.00;61774.03;5072414;28;20047;-72
2021/06/11 06:16:42;;;;;;;19.63;17.55;;;;;;;-139.48;100.00;61774.03;5073664;28;20484;-72
2021/06/11 06:19:26;;;;;;;20.77;17.23;;;;;;;-139.48;100.00;61774.03;5057798;28;20048;-72
2021/06/11 06:22:10;;;;;;;21.17;17.10;;;;;;;-139.48;100.00;61774.03;5072443;28;20048;-72
2021/06/11 06:24:54;;;;;;;20.88;18.73;;;;;;;-139.48;100.00;61774.03;5072221;28;20472;-72
2021/06/11 06:27:40;;;;;;;23.70;18.40;;;;;;;-139.48;100.00;61774.03;5072499;28;20409;-72
2021/06/11 06:30:24;;;;;;;18.58;16.67;;;;;;;-139.48;100.00;61774.03;5072498;28;20058;-72
2021/06/11 06:33:08;;;;;;;20.80;18.13;;;;;;;-139.48;100.00;61774.03;5057967;28;20056;-73
2021/06/11 06:35:53;;;;;;;23.65;18.45;;;;;;;-139.48;100.00;61774.03;5072113;28;20047;-72
2021/06/11 06:38:37;;;;;;;18.05;15.45;;;;;;;-139.48;100.00;61774.03;5072351;28;20113;-72
2021/06/11 06:41:22;;;;;;;23.20;18.10;;;;;;;-139.48;100.00;61774.03;5072377;28;20133;-72
2021/06/11 06:44:06;;;;;;;22.70;19.35;;;;;;;-139.48;100.00;61774.03;5072338;28;20079;-71
2021/06/11 06:46:50;;;;;;;22.42;19.27;;;;;;;-139.48;100.00;61774.03;5072204;28;20536;-70
2021/06/11 06:49:34;;;;;;;22.92;18.20;;;;;;;-139.48;100.00;61774.03;5071977;28;20524;-72
2021/06/11 06:52:18;;;;;;;21.10;18.85;;;;;;;-139.48;100.00;61774.03;5058280;28;20516;-72
2021/06/11 06:55:03;;;;;;;21.60;19.13;;;;;;;-139.48;100.00;61774.03;5058063;28;20114;-72
2021/06/11 06:57:47;;;;;;;19.00;17.00;;;;;;;-139.48;100.00;61774.03;5072203;28;20134;-72
2021/06/11 07:00:32;;;;;;;24.10;19.73;;;;;;;-139.48;100.00;61774.03;5060659;28;20047;-72
2021/06/11 07:03:17;;;;;;;19.67;17.02;;;;;;;-139.48;100.00;61774.03;5076435;28;20055;-72
2021/06/11 07:06:01;;;;;;;21.80;19.50;;;;;;;-139.48;100.00;61774.03;5061988;28;20048;-73
2021/06/11 07:08:45;;;;;;;22.55;18.27;;;;;;;-139.48;100.00;61774.03;5061946;28;20048;-72
2021/06/11 07:11:28;;;;;;;21.70;19.45;;;;;;;-139.48;100.00;61774.03;5077080;28;20526;-72
2021/06/11 07:14:12;;;;;;;19.92;17.85;;;;;;;-139.48;100.00;61774.03;5076186;28;20141;-73
2021/06/11 07:16:56;;;;;;;20.67;18.58;;;;;;;-139.48;100.00;61774.03;5061593;28;20421;-72
2021/06/11 07:19:40;;;;;;;18.90;16.92;;;;;;;-139.48;100.00;61774.03;5075817;28;20052;-72
2021/06/11 07:22:24;;;;;;;21.48;17.10;;;;;;;-139.48;100.00;61774.03;5061744;28;20102;-72
2021/06/11 07:25:08;;;;;;;21.10;17.35;;;;;;;-139.48;100.00;61774.03;5075805;28;20039;-72
2021/06/11 07:27:52;;;;;;;20.98;18.70;;;;;;;-139.48;100.00;61774.03;5075477;28;20405;-72
2021/06/11 07:30:36;;;;;;;19.05;15.23;;;;;;;-139.48;100.00;61774.03;5061444;28;20113;-72
2021/06/11 07:33:20;;;;;;;19.13;16.33;;;;;;;-139.48;100.00;61774.03;5075419;28;20051;-72
2021/06/11 07:36:04;;;;;;;20.52;16.80;;;;;;;-139.48;100.00;61774.03;5061804;28;20097;-72
2021/06/11 07:38:48;;;;;;;20.48;18.33;;;;;;;-139.48;100.00;61774.03;5076546;28;20051;-72
2021/06/11 07:41:32;;;;;;;20.20;17.95;;;;;;;-139.48;100.00;61774.03;5075341;28;20095;-72
2021/06/11 07:44:16;;;;;;;18.38;16.38;;;;;;;-139.48;100.00;61774.03;5076164;28;20047;-72
2021/06/11 07:46:59;;;;;;;;;;;;;;;-139.48;100.00;61774.03;5075758;28;20102;-72
2021/06/11 07:49:44;;;;;;;21.50;19.30;;;;;;;-139.48;100.00;61774.03;5076070;28;19920;-72
2021/06/11 07:52:31;;;;;;;24.38;18.23;;;;;;;-139.48;100.00;61774.03;5076271;28;20044;-72
2021/06/11 07:55:15;;;;;;;21.08;17.38;;;;;;;-139.48;100.00;61774.03;5061355;28;20117;-72
2021/06/11 07:58:00;;;;;;;20.35;15.48;;;;;;;-139.48;100.00;61774.03;5074849;28;20454;-72
2021/06/11 08:00:43;;;;;;;18.55;16.67;;;;;;;-139.48;100.00;61774.03;5074716;28;20067;-72
2021/06/11 08:03:27;;;;;;;;;;;;;;;-139.48;100.00;61774.03;5075497;28;20413;-72
2021/06/11 08:06:11;;;;;;;15.70;14.10;;;;;;;-139.48;100.00;61774.03;5074982;28;19923;-72
2021/06/11 08:08:55;;;;;;;15.50;13.60;;;;;;;-139.48;100.00;61774.03;5060694;28;20051;-72
2021/06/11 08:11:39;;;;;;;14.73;13.23;;;;;;;-139.48;100.00;61774.03;5073406;28;20051;-72
2021/06/11 08:14:23;;;;;;;;;;;;;;;-139.48;100.00;61774.03;5075214;28;20145;-72
2021/06/11 08:17:07;;;;;;;16.73;14.03;;;;;;;-139.48;100.00;61774.03;5074758;28;19959;-73
2021/06/11 08:19:51;;;;;;;15.55;13.07;;;;;;;-139.48;100.00;61774.03;5074620;28;20554;-71
2021/06/11 08:22:37;;;;;;;13.02;11.80;;;;;;;-139.48;100.00;61774.03;5060514;28;20051;-72
2021/06/11 08:25:22;;;;;;;14.55;13.02;;;;;;;-139.48;100.00;61774.03;5074292;28;20413;-72
2021/06/11 08:28:06;;;;;;;13.95;12.45;;;;;;;-139.48;100.00;61774.03;5074408;28;20134;-72
2021/06/11 08:30:50;;;;;;;15.77;12.45;;;;;;;-139.48;100.00;61774.03;5074414;28;20047;-72
2021/06/11 08:33:34;;;;;;;;;;;;;;;-139.48;100.00;61774.03;5074842;28;20151;-72
2021/06/11 08:36:18;;;;;;;12.05;10.82;;;;;;;-139.48;100.00;61774.03;5074102;28;19918;-72
2021/06/11 08:39:02;;;;;;;;;;;;;;;-139.48;100.00;61774.03;5060580;28;20044;-72
2021/06/11 08:41:46;;;;;;;11.52;10.43;;;;;;;-139.48;100.00;61774.03;5074159;28;19966;-72
2021/06/11 08:44:30;;;;;;;;;;;;;;;-139.48;100.00;61774.03;5074477;28;20051;-72
2021/06/11 08:47:15;;;;;;;10.75;9.00;;;;;;;-139.48;100.00;61774.03;5073735;28;19927;-72
2021/06/11 08:49:59;;;;;;;10.88;8.98;;;;;;;-139.48;100.00;61774.03;5073521;28;20477;-72
2021/06/11 08:52:43;;;;;;;9.15;8.25;;;;;;;-139.48;100.00;61774.03;5059853;28;20050;-72
2021/06/11 08:55:28;;;;;;;8.85;7.95;;;;;;;-139.48;100.00;61774.03;5059994;28;20093;-72
2021/06/11 08:58:12;;;;;;;11.35;8.48;;;;;;;-139.48;100.00;61774.03;5073978;28;20102;-72
2021/06/11 09:00:56;;;;;;;9.68;7.50;;;;;;;-139.48;100.00;61774.03;5073502;28;20048;-72
2021/06/11 09:03:48;;;;;;;11.18;8.63;;;;;;;-139.48;100.00;61774.03;5074828;28;20059;-72
2021/06/11 09:06:32;;;;;;;10.45;8.05;;;;;;;-139.48;100.00;61774.03;5059164;28;20073;-72
2021/06/11 09:09:16;;;;;;;;;;;;;;;-139.48;100.00;61774.03;5059808;28;20098;-70
2021/06/11 09:12:00;;;;;;;10.45;9.20;;;;;;;-139.48;100.00;61774.03;5073585;28;20003;-72
2021/06/11 09:14:58;;;;;;;10.98;8.95;;;;;;;-139.48;100.00;61774.03;5073389;28;20051;-72
2021/06/11 09:17:48;;;;;;;11.55;9.85;;;;;;;-139.48;100.00;61774.03;5073550;28;20178;-72
2021/06/11 09:20:41;;;;;;;11.93;8.80;;;;;;;-139.48;100.00;61774.03;5073285;28;20511;-72
2021/06/11 09:23:25;;;;;;;10.90;9.80;;;;;;;-139.48;100.00;61774.03;5073076;28;20048;-72
2021/06/11 09:26:09;;;;;;;;;;;;;;;-139.48;100.00;61774.03;5073772;28;20214;-72
2021/06/11 09:29:17;;;;;;;10.63;9.52;;;;;;;-139.48;100.00;61774.03;5059033;28;19920;-72
2021/06/11 09:32:15;;;;;;;11.40;9.85;;;;;;;-139.48;100.00;61774.03;5073152;28;20048;-72
2021/06/11 09:35:04;;;;;;;11.45;9.98;;;;;;;-139.48;100.00;61774.03;5073155;28;20109;-72
2021/06/11 09:37:48;;;;;;;10.73;9.25;;;;;;;-139.48;100.00;61774.03;5072605;28;20467;-72
2021/06/11 09:40:32;;;;;;;;;;;;;;;-139.48;100.00;61774.03;5058950;28;20492;-72
2021/06/11 09:43:17;;;;;;;11.60;10.43;;;;;;;-139.48;100.00;61774.03;5073278;28;19919;-72
2021/06/11 09:46:10;;;;;;;13.32;10.02;;;;;;;-139.48;100.00;61774.03;5072749;28;20507;-72
2021/06/11 09:48:54;;;;;;;12.13;9.85;;;;;;;-139.48;100.00;61774.03;5073672;28;20570;-72
2021/06/11 09:51:38;;;;;;;;;;;;;;;-139.48;100.00;61774.03;5113081;22;20523;-71
2021/06/11 09:54:28;;;;;;;10.20;8.18;;;;;;;-139.48;100.00;61774.03;5094190;28;19923;-70
2021/06/11 09:57:24;;;;;;;12.77;11.32;;;;;;;-139.48;100.00;61774.03;5092960;28;20118;-71
2021/06/11 10:00:09;;;;;;;12.52;10.18;;;;;;;-139.48;100.00;61774.03;5078632;28;20047;-71
2021/06/11 10:02:53;;;;;;;10.30;9.25;;;;;;;-139.48;100.00;61774.03;5093948;28;20070;-70
2021/06/11 10:05:39;;;;;;;15.63;9.20;;;;;;;-139.48;100.00;61774.03;5092784;28;20050;-70
2021/06/11 10:08:24;;;;;;;11.18;9.85;;;;;;;-139.48;100.00;61774.03;5092887;28;20132;-70
2021/06/11 10:11:13;;;;;;;11.40;9.25;;;;;;;-139.48;100.00;61774.03;5093472;28;20047;-70
2021/06/11 10:13:59;;;;;;;11.38;9.10;;;;;;;-139.48;100.00;61774.03;5093796;28;20105;-71
2021/06/11 10:16:43;;;;;;;9.93;8.93;;;;;;;-139.48;100.00;61774.03;5092796;28;20114;-71
2021/06/11 10:19:28;;;;;;;10.57;9.40;;;;;;;-139.48;100.00;61774.03;5092730;28;20089;-71
2021/06/11 10:22:12;;;;;;;12.52;10.32;;;;;;;-139.48;100.00;61774.03;5092859;28;20062;-71
2021/06/11 10:24:56;;;;;;;14.25;10.38;;;;;;;-139.48;100.00;61774.03;5092763;28;20101;-71
2021/06/11 10:27:42;;;;;;;9.30;8.40;;;;;;;-139.48;100.00;61774.03;5092562;28;20133;-69
2021/06/11 10:30:29;;;;;;;11.50;8.85;;;;;;;-139.48;100.00;61774.03;5092167;28;20184;-70
2021/06/11 10:33:14;;;;;;;9.43;8.52;;;;;;;-139.48;100.00;61774.03;5092185;28;20055;-70
2021/06/11 10:35:58;;;;;;;11.20;9.80;;;;;;;-139.48;100.00;61774.03;5078142;28;20105;-70
2021/06/11 10:38:42;;;;;;;9.63;8.60;;;;;;;-139.48;100.00;61774.03;5092495;28;20119;-70
2021/06/11 10:41:27;;;;;;;10.60;9.30;;;;;;;-139.48;100.00;61774.03;5077992;28;20124;-69
2021/06/11 10:44:51;;;;;;;10.43;9.18;;;;;;;-139.48;100.00;61774.03;5092185;28;20508;-70
2021/06/11 10:47:35;;;;;;;;;;;;;;;-139.48;100.00;61774.03;5092604;28;20044;-71
2021/06/11 10:50:36;;;;;;;8.93;7.50;;;;;;;-139.48;100.00;61774.03;5092168;28;19972;-71
2021/06/11 10:53:29;;;;;;;9.60;7.60;;;;;;;-139.48;100.00;61774.03;5092091;28;20055;-70
2021/06/11 10:56:14;;;;;;;8.88;8.00;;;;;;;-139.48;100.00;61774.03;5092312;28;20115;-71
2021/06/11 10:58:58;;;;;;;8.10;7.45;;;;;;;-139.48;100.00;61774.03;5093016;28;20047;-71
2021/06/11 11:01:51;;;;;;;7.60;7.00;;;;;;;-139.48;100.00;61774.03;5091973;28;20531;-71
2021/06/11 11:04:42;;;;;;;8.98;7.05;;;;;;;-139.48;100.00;61774.03;5078135;28;20145;-71
2021/06/11 11:07:29;;;;;;;9.70;7.25;;;;;;;-139.48;100.00;61774.03;5092881;28;20069;-71
2021/06/11 11:10:15;;;;;;;7.53;6.75;;;;;;;-139.48;100.00;61774.03;5092963;28;20063;-70
2021/06/11 11:13:05;;;;;;;7.70;6.95;;;;;;;-139.48;100.00;61774.03;5093530;28;20055;-71
2021/06/11 11:15:50;;;;;;;9.48;6.68;;;;;;;-139.48;100.00;61774.03;5091948;28;20043;-71
2021/06/11 11:18:34;;;;;;;7.93;7.13;;;;;;;-139.48;100.00;61774.03;5093216;28;20055;-71
2021/06/11 11:21:29;;;;;;;8.02;7.32;;;;;;;-139.48;100.00;61774.03;5091874;28;20047;-71
2021/06/11 11:24:13;;;;;;;6.72;6.20;;;;;;;-139.48;100.00;61774.03;5077820;28;20054;-71
2021/06/11 11:26:57;;;;;;;7.05;6.45;;;;;;;-139.48;100.00;61774.03;5093008;28;20568;-71
2021/06/11 11:29:41;;;;;;;7.70;6.75;;;;;;;-139.48;100.00;61774.03;5093064;28;20130;-71
2021/06/11 11:32:25;;;;;;;7.90;6.38;;;;;;;-139.48;100.00;61774.03;5092984;28;20400;-70
2021/06/11 11:35:10;;;;;;;7.88;6.65;;;;;;;-139.48;100.00;61774.03;5093079;28;20093;-70
2021/06/11 11:37:58;;;;;;;6.65;6.00;;;;;;;-139.48;100.00;61774.03;5077682;28;20055;-70
2021/06/11 11:40:42;;;;;;;7.07;6.38;;;;;;;-139.48;100.00;61774.03;5092928;28;20087;-71
2021/06/11 11:43:26;;;;;;;6.47;5.18;;;;;;;-139.48;100.00;61774.03;5092955;28;20066;-71
2021/06/11 11:46:10;;;;;;;5.97;5.47;;;;;;;-139.48;100.00;61774.03;5079748;28;20051;-71
2021/06/11 11:48:54;;;;;;;5.55;5.13;;;;;;;-139.48;100.00;61774.03;5095359;28;20086;-71
2021/06/11 11:51:38;;;;;;;6.57;5.05;;;;;;;-139.48;100.00;61774.03;5096425;28;20136;-71
2021/06/11 11:54:22;;;;;;;5.75;5.38;;;;;;;-139.48;100.00;61774.03;5095304;28;20136;-70
2021/06/11 11:57:07;;;;;;;6.10;5.50;;;;;;;-139.48;100.00;61774.03;5095474;28;20518;-71
2021/06/11 11:59:50;;;;;;;6.57;6.03;;;;;;;-139.48;100.00;61774.03;5096569;28;20058;-71
2021/06/11 12:02:34;;;;;;;5.65;5.25;;;;;;;-139.48;100.00;61774.03;5095546;28;20051;-71
2021/06/11 12:05:18;;;;;;;5.53;5.07;;;;;;;-139.48;100.00;61774.03;5095236;28;20050;-71
2021/06/11 12:08:02;;;;;;;7.25;5.63;;;;;;;-139.48;100.00;61774.03;5095973;28;20050;-71
2021/06/11 12:10:46;;;;;;;7.70;5.22;;;;;;;-139.48;100.00;61774.03;5080804;28;20059;-71
2021/06/11 12:13:30;;;;;;;7.80;7.10;;;;;;;-139.48;100.00;61774.03;5095111;28;20446;-71
2021/06/11 12:16:15;;;;;;;6.80;5.20;;;;;;;-139.48;100.00;61774.03;5095070;28;20491;-71
2021/06/11 12:18:59;;;;;;;5.95;5.10;;;;;;;-139.48;100.00;61774.03;5094952;28;20047;-71
2021/06/11 12:21:43;;;;;;;6.78;5.00;;;;;;;-139.48;100.00;61774.03;5094609;28;20051;-70